»·PEaware :: AAL225 KGEG-KPDX

AAL225 :: KGEG-KPDX

FLIGHT INFORMATION

Flight Status: Arrived
Operator:
American Airlines
More flights by this operator :: More flights under this callsign
Pilot: Michael R. (16974)
Aircraft: BOEING 737-800
(B738)
More flights by this aircraft type
Origin: KGEG Spokane Intl
United States
Destination: KPDX Portland Intl
United States
More flights between these airports :: More routes between these airports
Route: ZEGRO JORAD HHOOD4
File this flight plan on PilotEdge
Remarks:
Altitude:
(Current/Filed)
28,000ft
Speed:
(Current/Filed)
420kts
Departed: 07-Apr-18 12:23 PM
Arrived: 07-Apr-18 01:18 PM
Distance/Time
Traveled:
242nm/0:55
Distance/Time
To Go:
Arrived

Flight Plot

Page will automatically refresh every two minutes.

Flight plan parsing failed; only flown route is shown


Map Options




Map Legend


Flown Route
Filed Route
Departure Airport
Arrival Airport
Navaid (VOR, NDB)
Fix

Horizontal Profiles

Position Reports

Time Latitude Longitude Heading Altitude Ground
Speed
07-Apr-18 11:56 47.624487 -117.536673 90 2392ft 0kts
07-Apr-18 11:57 47.624487 -117.536673 90 2392ft 0kts
07-Apr-18 11:58 47.624487 -117.536673 90 2392ft 0kts
07-Apr-18 11:59 47.624487 -117.536673 90 2392ft 0kts
07-Apr-18 12:00 47.624487 -117.536673 90 2392ft 0kts
07-Apr-18 12:01 47.624487 -117.536673 90 2392ft 0kts
07-Apr-18 12:02 47.624487 -117.536673 90 2392ft 0kts
07-Apr-18 12:03 47.624487 -117.536673 90 2392ft 0kts
07-Apr-18 12:04 47.624487 -117.536673 90 2392ft 0kts
07-Apr-18 12:05 47.624487 -117.536673 90 2392ft 0kts
07-Apr-18 12:06 47.624487 -117.536673 90 2392ft 0kts
07-Apr-18 12:07 47.624487 -117.536673 90 2392ft 0kts
07-Apr-18 12:08 47.624487 -117.536673 90 2392ft 0kts
07-Apr-18 12:09 47.624487 -117.536673 90 2392ft 0kts
07-Apr-18 12:10 47.624352 -117.536914 15 2392ft 2kts
07-Apr-18 12:11 47.623929 -117.537393 104 2392ft 2kts
07-Apr-18 12:12 47.624022 -117.537569 135 2392ft 0kts
07-Apr-18 12:13 47.624022 -117.537569 135 2392ft 0kts
07-Apr-18 12:14 47.623513 -117.536804 133 2392ft 10kts
07-Apr-18 12:15 47.623188 -117.535650 122 2392ft 0kts
07-Apr-18 12:16 47.623093 -117.535432 122 2392ft 5kts
07-Apr-18 12:17 47.625867 -117.530403 44 2392ft 29kts
07-Apr-18 12:18 47.631971 -117.521221 45 2392ft 16kts
07-Apr-18 12:19 47.632287 -117.520520 77 2392ft 0kts
07-Apr-18 12:20 47.632295 -117.520434 84 2392ft 1kts
07-Apr-18 12:21 47.630986 -117.518744 199 2392ft 11kts
07-Apr-18 12:22 47.611430 -117.546716 221 3194ft 164kts
07-Apr-18 12:23 47.569069 -117.598752 221 5027ft 238kts
07-Apr-18 12:24 47.516361 -117.662338 221 4983ft 246kts
07-Apr-18 12:25 47.463295 -117.726338 221 4982ft 246kts
07-Apr-18 12:26 47.410337 -117.789685 221 4984ft 243kts
07-Apr-18 12:27 47.367355 -117.843398 225 4982ft 243kts
07-Apr-18 12:28 47.318049 -117.910984 224 4981ft 243kts
07-Apr-18 12:29 47.259409 -117.988798 224 4981ft 243kts
07-Apr-18 12:30 47.214812 -118.062566 236 7986ft 242kts
07-Apr-18 12:31 47.173211 -118.143871 236 10794ft 273kts
07-Apr-18 12:32 47.133050 -118.222338 234 12891ft 303kts
07-Apr-18 12:33 47.081390 -118.322823 231 15964ft 313kts
07-Apr-18 12:34 47.028340 -118.425564 229 18684ft 323kts
07-Apr-18 12:35 46.973504 -118.531344 228 21086ft 332kts
07-Apr-18 12:36 46.918722 -118.636643 228 23144ft 341kts
07-Apr-18 12:37 46.866143 -118.737120 227 25102ft 344kts
07-Apr-18 12:38 46.809338 -118.845200 227 26990ft 348kts
07-Apr-18 12:39 46.749084 -118.959213 227 27639ft 373kts
07-Apr-18 12:40 46.684282 -119.081470 228 27656ft 386kts
07-Apr-18 12:41 46.618801 -119.204674 228 27653ft 386kts
07-Apr-18 12:42 46.553168 -119.327678 228 27649ft 387kts
07-Apr-18 12:43 46.487203 -119.450892 227 27651ft 387kts
07-Apr-18 12:44 46.421215 -119.573531 227 27648ft 387kts
07-Apr-18 12:45 46.358107 -119.690277 227 27618ft 386kts
07-Apr-18 12:46 46.292438 -119.810842 227 27625ft 393kts
07-Apr-18 12:47 46.225333 -119.933625 228 27616ft 384kts
07-Apr-18 12:48 46.159146 -120.054305 228 27618ft 384kts
07-Apr-18 12:49 46.093021 -120.174410 228 27619ft 385kts
07-Apr-18 12:50 46.026330 -120.295025 228 27619ft 389kts
07-Apr-18 12:51 45.960676 -120.413468 228 27605ft 361kts
07-Apr-18 12:52 45.899953 -120.522503 227 25489ft 360kts
07-Apr-18 12:53 45.843381 -120.623473 226 23604ft 345kts
07-Apr-18 12:54 45.799177 -120.737218 242 21822ft 349kts
07-Apr-18 12:55 45.765340 -120.863435 243 19981ft 335kts
07-Apr-18 12:56 45.733508 -120.980371 244 18243ft 328kts
07-Apr-18 12:57 45.701062 -121.098657 244 16934ft 315kts
07-Apr-18 12:58 45.668730 -121.215493 244 16946ft 320kts
07-Apr-18 12:59 45.635263 -121.335657 245 14994ft 317kts
07-Apr-18 13:00 45.605638 -121.442167 245 12536ft 275kts
07-Apr-18 13:01 45.578145 -121.540891 245 11167ft 264kts
07-Apr-18 13:02 45.552108 -121.634254 245 9954ft 238kts
07-Apr-18 13:03 45.529588 -121.715611 251 8957ft 231kts
07-Apr-18 13:04 45.531249 -121.807576 264 8484ft 218kts
07-Apr-18 13:05 45.534597 -121.885798 264 7581ft 189kts
07-Apr-18 13:06 45.537375 -121.959909 265 6740ft 185kts
07-Apr-18 13:07 45.541524 -122.033590 265 6709ft 188kts
07-Apr-18 13:08 45.537044 -122.103672 254 6704ft 166kts
07-Apr-18 13:09 45.539911 -122.167641 239 6694ft 161kts
07-Apr-18 13:10 45.518411 -122.223870 236 5523ft 160kts
07-Apr-18 13:11 45.496324 -122.279477 235 4316ft 164kts
07-Apr-18 13:12 45.495083 -122.341751 289 3643ft 190kts
07-Apr-18 13:13 45.519797 -122.403575 289 2659ft 176kts
07-Apr-18 13:14 45.541712 -122.459391 289 1775ft 154kts
07-Apr-18 13:15 45.561117 -122.509160 290 993ft 143kts
07-Apr-18 13:16 45.579997 -122.557627 292 252ft 144kts
07-Apr-18 13:17 45.590325 -122.586048 267 31ft 0kts
07-Apr-18 13:18 45.590290 -122.587246 268 31ft 11kts
07-Apr-18 13:19 45.592903 -122.597656 230 31ft 21kts
07-Apr-18 13:20 45.590950 -122.596317 12 31ft 0kts
07-Apr-18 13:21 45.590950 -122.596318 12 31ft 0kts
07-Apr-18 13:22 45.590950 -122.596318 12 31ft 0kts
07-Apr-18 13:23 45.590950 -122.596318 12 31ft 0kts
07-Apr-18 13:24 45.590950 -122.596318 12 31ft 0kts
07-Apr-18 13:25 45.590950 -122.596318 12 31ft 0kts
07-Apr-18 13:26 45.590950 -122.596318 12 31ft 0kts
07-Apr-18 13:27 45.590950 -122.596318 12 31ft 0kts
07-Apr-18 13:28 45.590950 -122.596318 12 31ft 0kts
07-Apr-18 13:29 45.590950 -122.596318 12 31ft 0kts
07-Apr-18 13:30 45.590950 -122.596318 12 31ft 0kts
07-Apr-18 13:31 45.590950 -122.596318 12 31ft 0kts

Navigation Log

Ident Type
Flight plan parsing failed, navigation log unavailable